Heist-op-den-Berg, Belgium
Current Conditions -  °F | °C
As of 5:20 PM on Friday 21 Nov 2014 (Local Time) from EBAW Reporting Station
Clear Clear  
Wind Chill: 36°   Ceiling: Unl
Heat Index: 41°   Visibility: 5mi
Dew Point: 37°   Wind: 7mph
Humidity: 87%   Direction: 90°E
Pressure: 30.09"   Gusts: NA
Location:  51.08°N, 4.73°E
Report Text: EBAW 211620Z 09006KT 8000 NSC 05/03 Q1019 NOSIG
Loading
Personal Weather Stations






























Interactive Weather Map New forecast layout! Learn more

10-Day Weather Forecast

Advertisements
Track Severe Weather on mobile